EGSS/STN METAR and TAF weather

Enter ICAO airport designator
Station Type Date Time Source
EGSS METAR 2019/04/22 20:20 UTC NOAA

EGSS 222020Z AUTO 10007KT 9999 NCD 16/07 Q1003


Station Type Date Time Source
EGSS Decoded METAR 2019/04/22 20:20 UTC NOAA

Stansted Airport, United Kingdom (EGSS) 51-53N 000-14E 0M
Apr 22, 2019 - 04:20 PM EDT / 2019.04.22 2020 UTC
Wind: from the E (100 degrees) at 8 MPH (7 KT):0
Visibility: greater than 7 mile(s):0
Temperature: 60 F (16 C)
Dew Point: 44 F (7 C)
Relative Humidity: 55%
Pressure (altimeter): 29.62 in. Hg (1003 hPa)
ob: EGSS 222020Z AUTO 10007KT 9999 NCD 16/07 Q1003
cycle: 20

Station Type Date Time Source
EGSS TAF 2019/04/22 18:06 UTC NOAA

TAF EGSS 221656Z 2218/2324 11010KT CAVOK
BECMG 2221/2224 VRB03KT
TEMPO 2302/2308 8000
BECMG 2306/2309 08010KT

Example: see airport list